Boyleston, Illinois
Current Conditions -  °F | °C
As of 2:35 AM on Saturday 22 Nov 2014 (Local Time) from KFWC Reporting Station
Overcast Overcast  
Wind Chill: 38°   Ceiling: 6000
Heat Index: 41°   Visibility: 10mi
Dew Point: 30°   Wind: 5mph
Humidity: 66%   Direction: 160°SSE
Pressure: 30.23"   Gusts: NA
Location:  38.3669°N, 88.3516°W
Report Text: KFWC 220835Z AUTO 16004KT 10SM BKN060 OVC090 05/M01 A3023 RMK AO1 T00501009
Loading
Personal Weather Stations






























Interactive Weather Map New forecast layout! Learn more

10-Day Weather Forecast

Advertisements
Track Severe Weather on mobile